Time;durP1;ratioP1;P1;durP2;ratioP2;P2;SDS_P1;SDS_P2;PMS_P1;PMS_P2;Temp;Humidity;BMP_temperature;BMP_pressure;BME280_temperature;BME280_humidity;BME280_pressure;Samples;Min_cycle;Max_cycle;Signal;HPM_P1;HPM_P2
2023/09/01 00:01:50;;;;;;;;;;;18.00;86.50;;;;;;5057345;28;19995;-78
2023/09/01 00:04:17;;;;;;;;;;;18.00;86.50;;;;;;5058013;28;19986;-78
2023/09/01 00:06:43;;;;;;;;;;;18.00;86.60;;;;;;5054103;28;19975;-78
2023/09/01 00:09:11;;;;;;;;;;;18.00;86.70;;;;;;5060331;28;19979;-78
2023/09/01 00:11:38;;;;;;;;;;;17.90;86.70;;;;;;5057054;28;19998;-78
2023/09/01 00:14:05;;;;;;;;;;;17.90;87.50;;;;;;5054061;28;19979;-78
2023/09/01 00:16:31;;;;;;;;;;;17.90;86.80;;;;;;5052746;28;19992;-77
2023/09/01 00:18:58;;;;;;;;;;;17.90;86.80;;;;;;5060273;28;19979;-78
2023/09/01 00:21:24;;;;;;;;;;;17.90;86.90;;;;;;5056839;28;20003;-78
2023/09/01 00:23:51;;;;;;;;;;;17.90;87.00;;;;;;5054192;28;19979;-78
2023/09/01 00:26:19;;;;;;;;;;;17.90;87.00;;;;;;5057195;28;19991;-78
2023/09/01 00:28:45;;;;;;;;;;;17.90;87.10;;;;;;5060375;28;19975;-78
2023/09/01 00:31:12;;;;;;;;;;;17.80;87.00;;;;;;5055617;28;20493;-78
2023/09/01 00:33:38;;;;;;;;;;;17.80;87.10;;;;;;5059436;28;20496;-78
2023/09/01 00:36:05;;;;;;;;;;;17.80;87.10;;;;;;5060626;28;19986;-77
2023/09/01 00:38:32;;;;;;;;;;;17.80;87.20;;;;;;5056573;28;19978;-78
2023/09/01 00:40:58;;;;;;;;;;;17.80;87.30;;;;;;5052350;28;20616;-78
2023/09/01 00:43:26;;;;;;;;;;;17.80;87.30;;;;;;5054649;28;20608;-79
2023/09/01 00:45:53;;;;;;;;;;;17.80;87.40;;;;;;5051306;28;20006;-78
2023/09/01 00:48:19;;;;;;;;;;;17.80;87.50;;;;;;5052323;28;19976;-79
2023/09/01 00:50:47;;;;;;;;;;;17.80;87.50;;;;;;5054050;28;20023;-77
2023/09/01 00:53:14;;;;;;;;;;;17.80;87.60;;;;;;5052827;28;19983;-78
2023/09/01 00:55:43;;;;;;;;;;;17.70;87.50;;;;;;5056241;28;19979;-78
2023/09/01 00:58:13;;;;;;;;;;;17.70;88.30;;;;;;5054557;28;19983;-77
2023/09/01 01:00:41;;;;;;;;;;;17.70;87.70;;;;;;5055662;28;20090;-77
2023/09/01 01:03:08;;;;;;;;;;;17.70;87.70;;;;;;5056817;28;19984;-77
2023/09/01 01:05:37;;;;;;;;;;;17.70;87.70;;;;;;5055321;28;20370;-77
2023/09/01 01:08:11;;;;;;;;;;;17.70;87.80;;;;;;5055428;28;19979;-77
2023/09/01 01:10:41;;;;;;;;;;;17.70;87.90;;;;;;5051879;28;19992;-77
2023/09/01 01:13:10;;;;;;;;;;;17.70;87.90;;;;;;5054298;28;19980;-77
2023/09/01 01:15:37;;;;;;;;;;;17.60;88.00;;;;;;5050704;28;20003;-77
2023/09/01 01:18:09;;;;;;;;;;;17.70;88.20;;;;;;5051933;28;19979;-76
2023/09/01 01:20:39;;;;;;;;;;;17.60;88.20;;;;;;5054350;28;20004;-78
2023/09/01 01:23:10;;;;;;;;;;;17.60;88.30;;;;;;5058081;28;19987;-77
2023/09/01 01:25:37;;;;;;;;;;;17.60;88.40;;;;;;5060541;28;19999;-77
2023/09/01 01:28:07;;;;;;;;;;;17.50;88.40;;;;;;5061768;28;19979;-78
2023/09/01 01:30:34;;;;;;;;;;;17.60;88.50;;;;;;5056317;28;20866;-78
2023/09/01 01:33:01;;;;;;;;;;;17.50;88.50;;;;;;5061083;28;20567;-78
2023/09/01 01:35:32;;;;;;;;;;;17.50;88.50;;;;;;5063760;28;19975;-78
2023/09/01 01:38:01;;;;;;;;;;;17.60;88.60;;;;;;5061397;28;19976;-77
2023/09/01 01:40:30;;;;;;;;;;;17.50;88.70;;;;;;5058590;28;20110;-78
2023/09/01 01:42:59;;;;;;;;;;;17.50;88.80;;;;;;5058641;28;19975;-78
2023/09/01 01:45:26;;;;;;;;;;;17.50;89.00;;;;;;5053467;28;20008;-78
2023/09/01 01:47:52;;;;;;;;;;;17.50;89.00;;;;;;5055116;28;19975;-78
2023/09/01 01:50:19;;;;;;;;;;;17.50;89.00;;;;;;5057309;28;19992;-78
2023/09/01 01:52:45;;;;;;;;;;;17.40;89.10;;;;;;5059413;28;20007;-78
2023/09/01 01:55:12;;;;;;;;;;;17.40;89.20;;;;;;5061343;28;20469;-78
2023/09/01 01:57:41;;;;;;;;;;;17.40;89.20;;;;;;5057456;28;20029;-78
2023/09/01 02:00:14;;;;;;;;;;;17.50;89.30;;;;;;5058941;28;20477;-78
2023/09/01 02:02:41;;;;;;;;;;;17.40;89.30;;;;;;5060312;28;20018;-78
2023/09/01 02:05:08;;;;;;;;;;;17.40;89.30;;;;;;5061808;28;20007;-78
2023/09/01 02:07:35;;;;;;;;;;;17.40;89.30;;;;;;5055031;28;19999;-77
2023/09/01 02:10:02;;;;;;;;;;;17.40;89.40;;;;;;5056440;28;20497;-78
2023/09/01 02:12:28;;;;;;;;;;;17.30;89.40;;;;;;5058836;28;19980;-78
2023/09/01 02:14:56;;;;;;;;;;;17.40;89.50;;;;;;5056167;28;19986;-77
2023/09/01 02:17:23;;;;;;;;;;;17.40;89.50;;;;;;5060216;28;19991;-77
2023/09/01 02:19:49;;;;;;;;;;;17.40;89.50;;;;;;5060476;28;20619;-76
2023/09/01 02:22:16;;;;;;;;;;;17.40;89.60;;;;;;5058163;28;19980;-77
2023/09/01 02:24:42;;;;;;;;;;;17.30;89.60;;;;;;5059642;28;19983;-77
2023/09/01 02:27:09;;;;;;;;;;;17.30;89.70;;;;;;5055404;28;19999;-77
2023/09/01 02:29:36;;;;;;;;;;;17.30;89.70;;;;;;5055562;28;19977;-77
2023/09/01 02:32:04;;;;;;;;;;;17.30;89.70;;;;;;5051893;28;20018;-76
2023/09/01 02:34:30;;;;;;;;;;;17.30;89.80;;;;;;5051793;28;20386;-77
2023/09/01 02:36:57;;;;;;;;;;;17.30;89.80;;;;;;5055403;28;19975;-76
2023/09/01 02:39:23;;;;;;;;;;;17.30;89.80;;;;;;5054798;28;19986;-76
2023/09/01 02:41:50;;;;;;;;;;;17.30;89.90;;;;;;5058027;28;19992;-77
2023/09/01 02:44:16;;;;;;;;;;;17.30;89.90;;;;;;5058132;28;19982;-77
2023/09/01 02:46:43;;;;;;;;;;;17.30;90.00;;;;;;5055979;28;20677;-76
2023/09/01 02:49:11;;;;;;;;;;;17.20;90.00;;;;;;5055676;28;19986;-77
2023/09/01 02:51:37;;;;;;;;;;;17.20;90.00;;;;;;5053698;28;20003;-76
2023/09/01 02:54:05;;;;;;;;;;;17.30;90.10;;;;;;5057056;28;19987;-78
2023/09/01 02:56:31;;;;;;;;;;;17.20;90.10;;;;;;5054669;28;20072;-76
2023/09/01 02:58:58;;;;;;;;;;;17.20;90.20;;;;;;5055384;28;20807;-78
2023/09/01 03:01:25;;;;;;;;;;;17.20;90.30;;;;;;5058920;28;20003;-77
2023/09/01 03:03:51;;;;;;;;;;;17.20;90.30;;;;;;5058896;28;20400;-76
2023/09/01 03:06:19;;;;;;;;;;;17.20;90.30;;;;;;5059426;28;19993;-76
2023/09/01 03:08:46;;;;;;;;;;;17.20;90.40;;;;;;5055431;28;19991;-76
2023/09/01 03:11:12;;;;;;;;;;;17.20;90.40;;;;;;5061712;28;19995;-77
2023/09/01 03:13:41;;;;;;;;;;;17.20;90.50;;;;;;5054234;28;19975;-77
2023/09/01 03:16:07;;;;;;;;;;;17.20;90.50;;;;;;5059880;28;20002;-78
2023/09/01 03:18:34;;;;;;;;;;;17.20;90.60;;;;;;5062021;28;19979;-76
2023/09/01 03:21:09;;;;;;;;;;;17.20;90.70;;;;;;5059799;28;19999;-76
2023/09/01 03:23:37;;;;;;;;;;;17.20;90.70;;;;;;5059929;28;19974;-79
2023/09/01 03:26:04;;;;;;;;;;;17.20;90.70;;;;;;5058568;28;19999;-77
2023/09/01 03:28:32;;;;;;;;;;;17.20;90.70;;;;;;5059404;28;19983;-78
2023/09/01 03:30:58;;;;;;;;;;;17.20;90.70;;;;;;5052653;28;20004;-78
2023/09/01 03:33:25;;;;;;;;;;;17.20;90.70;;;;;;5054509;28;19984;-78
2023/09/01 03:35:53;;;;;;;;;;;17.20;90.70;;;;;;5058661;28;19979;-78
2023/09/01 03:38:20;;;;;;;;;;;17.20;90.80;;;;;;5055499;28;19982;-76
2023/09/01 03:40:48;;;;;;;;;;;17.20;90.80;;;;;;5055672;28;19999;-79
2023/09/01 03:43:14;;;;;;;;;;;17.10;90.80;;;;;;5058672;28;20073;-78
2023/09/01 03:45:43;;;;;;;;;;;17.10;90.80;;;;;;5055585;28;20006;-77
2023/09/01 03:48:10;;;;;;;;;;;17.10;90.80;;;;;;5054999;28;19972;-76
2023/09/01 03:50:36;;;;;;;;;;;17.10;90.80;;;;;;5051968;28;20010;-77
2023/09/01 03:53:03;;;;;;;;;;;17.10;90.80;;;;;;5055105;28;19987;-77
2023/09/01 03:55:29;;;;;;;;;;;17.10;90.80;;;;;;5056445;28;19982;-74
2023/09/01 03:57:59;;;;;;;;;;;17.10;90.90;;;;;;5053793;28;19983;-75
2023/09/01 04:00:26;;;;;;;;;;;17.10;90.90;;;;;;5058425;28;20084;-75
2023/09/01 04:02:53;;;;;;;;;;;17.10;90.90;;;;;;5059874;28;19975;-76
2023/09/01 04:05:20;;;;;;;;;;;17.10;90.90;;;;;;5053359;28;19980;-74
2023/09/01 04:07:46;;;;;;;;;;;17.10;91.00;;;;;;5060757;28;19979;-76
2023/09/01 04:10:13;;;;;;;;;;;17.10;91.00;;;;;;5058086;28;19995;-74
2023/09/01 04:12:39;;;;;;;;;;;17.10;91.00;;;;;;5058936;28;19979;-75
2023/09/01 04:15:08;;;;;;;;;;;17.10;91.00;;;;;;5054500;28;19975;-76
2023/09/01 04:17:35;;;;;;;;;;;17.10;91.00;;;;;;5059245;28;20358;-75
2023/09/01 04:20:03;;;;;;;;;;;17.10;91.00;;;;;;5060981;28;19995;-75
2023/09/01 04:22:30;;;;;;;;;;;17.10;91.00;;;;;;5054214;28;20048;-75
2023/09/01 04:24:56;;;;;;;;;;;17.10;91.10;;;;;;5061228;28;19979;-74
2023/09/01 04:27:23;;;;;;;;;;;17.10;91.10;;;;;;5057788;28;20002;-75
2023/09/01 04:29:50;;;;;;;;;;;17.10;91.10;;;;;;5058939;28;20019;-74
2023/09/01 04:32:18;;;;;;;;;;;17.10;91.00;;;;;;5060183;28;20002;-75
2023/09/01 04:34:45;;;;;;;;;;;17.10;91.00;;;;;;5062196;28;19979;-76
2023/09/01 04:37:12;;;;;;;;;;;17.10;91.00;;;;;;5060456;28;19983;-75
2023/09/01 04:39:38;;;;;;;;;;;17.10;91.10;;;;;;5054811;28;20441;-75
2023/09/01 04:42:05;;;;;;;;;;;17.10;91.10;;;;;;5061566;28;19980;-75
2023/09/01 04:44:33;;;;;;;;;;;17.10;91.20;;;;;;5055872;28;20374;-75
2023/09/01 04:46:59;;;;;;;;;;;17.10;91.10;;;;;;5053657;28;20002;-75
2023/09/01 04:49:27;;;;;;;;;;;17.10;91.10;;;;;;5053030;28;19982;-74
2023/09/01 04:51:54;;;;;;;;;;;17.10;91.10;;;;;;5060542;28;19987;-75
2023/09/01 04:54:20;;;;;;;;;;;17.10;91.10;;;;;;5063092;28;20400;-76
2023/09/01 04:56:48;;;;;;;;;;;17.10;91.10;;;;;;5064966;28;19980;-74
2023/09/01 04:59:15;;;;;;;;;;;17.10;91.10;;;;;;5059883;28;19982;-75
2023/09/01 05:01:42;;;;;;;;;;;17.10;91.10;;;;;;5059436;28;20900;-74
2023/09/01 05:04:10;;;;;;;;;;;17.10;91.10;;;;;;5061807;28;20438;-76
2023/09/01 05:06:38;;;;;;;;;;;17.10;91.10;;;;;;5059468;28;19995;-77
2023/09/01 05:09:05;;;;;;;;;;;17.10;91.10;;;;;;5063484;28;19987;-75
2023/09/01 05:11:31;;;;;;;;;;;17.10;91.10;;;;;;5064190;28;20003;-76
2023/09/01 05:13:58;;;;;;;;;;;17.10;91.10;;;;;;5057389;28;19975;-75
2023/09/01 05:16:24;;;;;;;;;;;17.10;91.10;;;;;;5058539;28;20003;-75
2023/09/01 05:18:51;;;;;;;;;;;17.10;91.10;;;;;;5066101;28;19979;-75
2023/09/01 05:21:17;;;;;;;;;;;17.10;91.20;;;;;;5057140;28;20061;-76
2023/09/01 05:23:45;;;;;;;;;;;17.10;91.20;;;;;;5057735;28;19979;-75
2023/09/01 05:26:12;;;;;;;;;;;17.10;91.20;;;;;;5062212;28;19996;-76
2023/09/01 05:28:38;;;;;;;;;;;17.10;91.20;;;;;;5063221;28;19983;-76
2023/09/01 05:31:05;;;;;;;;;;;17.10;91.30;;;;;;5062333;28;20000;-75
2023/09/01 05:33:31;;;;;;;;;;;17.10;91.40;;;;;;5061827;28;20001;-75
2023/09/01 05:35:58;;;;;;;;;;;17.20;91.40;;;;;;5054118;28;19979;-76
2023/09/01 05:38:24;;;;;;;;;;;17.10;91.50;;;;;;5059696;28;19979;-76
2023/09/01 05:40:59;;;;;;;;;;;17.20;91.50;;;;;;5061690;28;19996;-76
2023/09/01 05:43:25;;;;;;;;;;;17.10;91.60;;;;;;5060676;28;19995;-76
2023/09/01 05:45:52;;;;;;;;;;;17.10;91.70;;;;;;5064907;28;19995;-75
2023/09/01 05:48:19;;;;;;;;;;;17.20;91.80;;;;;;5061849;28;20713;-76
2023/09/01 05:50:45;;;;;;;;;;;17.20;91.80;;;;;;5062185;28;20441;-75
2023/09/01 05:53:12;;;;;;;;;;;17.20;91.80;;;;;;5064392;28;19979;-77
2023/09/01 05:55:38;;;;;;;;;;;17.20;91.90;;;;;;5055409;28;20026;-76
2023/09/01 05:58:06;;;;;;;;;;;17.20;92.10;;;;;;5062635;28;20477;-77
2023/09/01 06:00:33;;;;;;;;;;;17.10;92.10;;;;;;5064806;28;20610;-76
2023/09/01 06:02:59;;;;;;;;;;;17.20;92.20;;;;;;5056612;28;20522;-76
2023/09/01 06:05:26;;;;;;;;;;;17.20;92.30;;;;;;5061187;28;19975;-78
2023/09/01 06:07:52;;;;;;;;;;;17.20;92.30;;;;;;5063603;28;19995;-77
2023/09/01 06:10:19;;;;;;;;;;;17.20;92.40;;;;;;5059361;28;19999;-78
2023/09/01 06:12:46;;;;;;;;;;;17.20;92.40;;;;;;5058902;28;20014;-78
2023/09/01 06:15:13;;;;;;;;;;;17.20;92.50;;;;;;5064652;28;20427;-77
2023/09/01 06:17:40;;;;;;;;;;;17.20;92.70;;;;;;5061112;28;21212;-78
2023/09/01 06:20:07;;;;;;;;;;;17.20;92.70;;;;;;5058718;28;20002;-77
2023/09/01 06:22:34;;;;;;;;;;;17.20;92.80;;;;;;5065853;28;19975;-78
2023/09/01 06:25:00;;;;;;;;;;;17.20;92.90;;;;;;5066914;28;19976;-77
2023/09/01 06:27:27;;;;;;;;;;;17.20;92.90;;;;;;5063409;28;19996;-78
2023/09/01 06:29:56;;;;;;;;;;;17.20;92.90;;;;;;5056719;28;19980;-77
2023/09/01 06:32:25;;;;;;;;;;;17.20;92.90;;;;;;5065416;28;19999;-77
2023/09/01 06:34:52;;;;;;;;;;;17.20;92.80;;;;;;5054341;28;19976;-77
2023/09/01 06:37:18;;;;;;;;;;;17.20;92.80;;;;;;5064262;28;19979;-78
2023/09/01 06:39:45;;;;;;;;;;;17.20;92.80;;;;;;5064612;28;19983;-78
2023/09/01 06:42:11;;;;;;;;;;;17.20;92.80;;;;;;5062696;28;20075;-77
2023/09/01 06:44:38;;;;;;;;;;;17.20;92.80;;;;;;5055313;28;19982;-77
2023/09/01 06:47:04;;;;;;;;;;;17.30;92.90;;;;;;5060167;28;20014;-78
2023/09/01 06:49:32;;;;;;;;;;;17.30;92.90;;;;;;5062345;28;19982;-78
2023/09/01 06:51:59;;;;;;;;;;;17.30;92.90;;;;;;5061934;28;19999;-77
2023/09/01 06:54:25;;;;;;;;;;;17.30;92.90;;;;;;5060825;28;20014;-77
2023/09/01 06:56:52;;;;;;;;;;;17.30;93.00;;;;;;5061303;28;19975;-76
2023/09/01 06:59:19;;;;;;;;;;;17.30;93.10;;;;;;5056983;28;19983;-77
2023/09/01 07:01:45;;;;;;;;;;;17.30;93.10;;;;;;5060787;28;20174;-77
2023/09/01 07:04:12;;;;;;;;;;;17.40;93.20;;;;;;5060589;28;19976;-77
2023/09/01 07:06:40;;;;;;;;;;;17.40;93.20;;;;;;5064438;28;19987;-77
2023/09/01 07:09:06;;;;;;;;;;;17.30;93.10;;;;;;5055912;28;19983;-78
2023/09/01 07:11:33;;;;;;;;;;;17.30;93.10;;;;;;5060034;28;19995;-77
2023/09/01 07:13:59;;;;;;;;;;;17.40;93.10;;;;;;5059782;28;19986;-77
2023/09/01 07:16:26;;;;;;;;;;;17.40;93.30;;;;;;5054211;28;20018;-77
2023/09/01 07:18:52;;;;;;;;;;;17.40;93.40;;;;;;5055459;28;20453;-77
2023/09/01 07:21:19;;;;;;;;;;;17.40;93.40;;;;;;5058516;28;19995;-78
2023/09/01 07:23:48;;;;;;;;;;;17.40;93.50;;;;;;5059801;28;19979;-77
2023/09/01 07:26:15;;;;;;;;;;;17.50;93.50;;;;;;5061285;28;20067;-77
2023/09/01 07:28:42;;;;;;;;;;;17.50;93.40;;;;;;5058610;28;19991;-77
2023/09/01 07:31:10;;;;;;;;;;;17.50;93.40;;;;;;5059908;28;20478;-76
2023/09/01 07:33:41;;;;;;;;;;;17.50;93.50;;;;;;5057317;28;20065;-76
2023/09/01 07:36:09;;;;;;;;;;;17.50;93.50;;;;;;5055915;28;20004;-77
2023/09/01 07:38:35;;;;;;;;;;;17.50;93.60;;;;;;5056872;28;19987;-77
2023/09/01 07:41:04;;;;;;;;;;;17.60;93.50;;;;;;5053941;28;19998;-77
2023/09/01 07:43:30;;;;;;;;;;;17.60;93.40;;;;;;5053403;28;20006;-77
2023/09/01 07:45:57;;;;;;;;;;;17.60;93.40;;;;;;5059203;28;20007;-77
2023/09/01 07:48:23;;;;;;;;;;;17.60;93.30;;;;;;5055623;28;19999;-77
2023/09/01 07:50:50;;;;;;;;;;;17.70;93.60;;;;;;5062435;28;19999;-77
2023/09/01 07:53:16;;;;;;;;;;;17.60;93.60;;;;;;5054870;28;19983;-77
2023/09/01 07:55:43;;;;;;;;;;;17.70;93.50;;;;;;5055834;28;19979;-76
2023/09/01 07:58:11;;;;;;;;;;;17.70;93.50;;;;;;5063907;28;19983;-77
2023/09/01 08:00:39;;;;;;;;;;;17.80;93.60;;;;;;5062665;28;20006;-77
2023/09/01 08:03:10;;;;;;;;;;;17.80;93.60;;;;;;5056629;28;20032;-78
2023/09/01 08:05:37;;;;;;;;;;;17.80;93.50;;;;;;5059719;28;20022;-78
2023/09/01 08:08:03;;;;;;;;;;;17.80;93.40;;;;;;5059183;28;19995;-77
2023/09/01 08:10:30;;;;;;;;;;;17.90;93.50;;;;;;5057467;28;19995;-77
2023/09/01 08:12:56;;;;;;;;;;;17.90;93.70;;;;;;5056717;28;20615;-77
2023/09/01 08:15:24;;;;;;;;;;;17.90;93.70;;;;;;5060023;28;19983;-77
2023/09/01 08:17:54;;;;;;;;;;;17.90;93.70;;;;;;5059075;28;19978;-77
2023/09/01 08:20:22;;;;;;;;;;;18.00;93.60;;;;;;5060304;28;19996;-77
2023/09/01 08:22:48;;;;;;;;;;;18.00;93.70;;;;;;5059288;28;20037;-78
2023/09/01 08:25:15;;;;;;;;;;;18.00;93.70;;;;;;5060853;28;19984;-78
2023/09/01 08:27:40;;;;;;;;;;;18.00;93.60;;;;;;5060503;28;20018;-78
2023/09/01 08:30:08;;;;;;;;;;;18.00;93.50;;;;;;5056358;28;19992;-78
2023/09/01 08:32:36;;;;;;;;;;;18.10;93.50;;;;;;5068112;28;19982;-78
2023/09/01 08:35:03;;;;;;;;;;;18.10;93.50;;;;;;5060568;28;19984;-76
2023/09/01 08:37:30;;;;;;;;;;;18.10;93.60;;;;;;5064310;28;19976;-77
2023/09/01 08:39:56;;;;;;;;;;;18.10;93.60;;;;;;5065612;28;19991;-77
2023/09/01 08:42:23;;;;;;;;;;;18.20;93.50;;;;;;5065592;28;19986;-78
2023/09/01 08:44:50;;;;;;;;;;;18.20;93.40;;;;;;5065310;28;19987;-77
2023/09/01 08:59:31;;;;;;;;;;;18.40;93.40;;;;;;5052300;28;19970;-77
2023/09/01 09:01:57;;;;;;;;;;;18.40;93.10;;;;;;5062803;28;20077;-79
2023/09/01 09:04:24;;;;;;;;;;;18.50;93.10;;;;;;5060195;28;19982;-78
2023/09/01 09:06:51;;;;;;;;;;;18.50;93.10;;;;;;5068262;28;19975;-77
2023/09/01 09:09:18;;;;;;;;;;;18.50;93.00;;;;;;5066488;28;19995;-77
2023/09/01 09:11:55;;;;;;;;;;;18.50;92.80;;;;;;5061640;28;19996;-77
2023/09/01 09:14:22;;;;;;;;;;;18.50;92.70;;;;;;5062660;28;19979;-77
2023/09/01 09:16:53;;;;;;;;;;;18.50;92.70;;;;;;5060505;28;20515;-78
2023/09/01 09:19:20;;;;;;;;;;;18.60;92.70;;;;;;5065173;28;19986;-77
2023/09/01 09:21:46;;;;;;;;;;;18.60;92.90;;;;;;5064259;28;19995;-77
2023/09/01 09:24:13;;;;;;;;;;;18.60;92.80;;;;;;5065344;28;20718;-78
2023/09/01 09:26:39;;;;;;;;;;;18.60;92.70;;;;;;5065610;28;19979;-78
2023/09/01 09:29:07;;;;;;;;;;;18.70;92.80;;;;;;5058935;28;20473;-77
2023/09/01 09:31:36;;;;;;;;;;;18.70;92.60;;;;;;5064125;28;20490;-77
2023/09/01 09:34:16;;;;;;;;;;;18.70;92.60;;;;;;5064919;28;20514;-77
2023/09/01 09:36:42;;;;;;;;;;;18.70;92.60;;;;;;5063684;28;20336;-77
2023/09/01 09:39:20;;;;;;;;;;;18.80;92.60;;;;;;5062415;28;19986;-77
2023/09/01 09:41:47;;;;;;;;;;;18.80;92.50;;;;;;5060852;28;19994;-78
2023/09/01 09:44:21;;;;;;;;;;;18.80;92.50;;;;;;5060907;28;19980;-77
2023/09/01 09:46:49;;;;;;;;;;;18.90;92.50;;;;;;5064378;28;20872;-77
2023/09/01 09:49:16;;;;;;;;;;;18.90;92.40;;;;;;5066046;28;20000;-77
2023/09/01 09:51:43;;;;;;;;;;;18.90;92.30;;;;;;5065350;28;19991;-78
2023/09/01 09:54:11;;;;;;;;;;;18.90;92.20;;;;;;5060254;28;20074;-77
2023/09/01 09:56:39;;;;;;;;;;;18.90;92.10;;;;;;5064701;28;19983;-78
2023/09/01 09:59:05;;;;;;;;;;;18.90;92.20;;;;;;5060251;28;19979;-77
2023/09/01 10:01:35;;;;;;;;;;;18.90;92.10;;;;;;5049156;28;20014;-77
2023/09/01 10:04:03;;;;;;;;;;;19.00;92.30;;;;;;5050604;28;19987;-77
2023/09/01 10:06:31;;;;;;;;;;;19.10;92.30;;;;;;5047923;28;19975;-77
2023/09/01 10:08:58;;;;;;;;;;;19.10;92.20;;;;;;5048898;28;19992;-77
2023/09/01 10:11:26;;;;;;;;;;;19.10;92.20;;;;;;5047665;28;20490;-77
2023/09/01 10:13:53;;;;;;;;;;;19.10;92.10;;;;;;5049683;28;19986;-77
2023/09/01 10:16:20;;;;;;;;;;;19.10;92.10;;;;;;5048343;28;20032;-77
2023/09/01 10:18:47;;;;;;;;;;;19.10;92.10;;;;;;5049680;28;19983;-77
2023/09/01 10:21:14;;;;;;;;;;;19.10;92.10;;;;;;5048626;28;20167;-77
2023/09/01 10:23:42;;;;;;;;;;;19.20;92.00;;;;;;5048795;28;20104;-76
2023/09/01 10:26:17;;;;;;;;;;;19.10;92.10;;;;;;5046796;28;20088;-77
2023/09/01 10:28:53;;;;;;;;;;;19.20;92.10;;;;;;5053693;28;20161;-75
2023/09/01 10:31:20;;;;;;;;;;;19.20;92.10;;;;;;5048535;28;19994;-76
2023/09/01 10:33:47;;;;;;;;;;;19.20;92.10;;;;;;5049413;28;20495;-76
2023/09/01 10:36:13;;;;;;;;;;;19.20;92.00;;;;;;5048774;28;19980;-76
2023/09/01 10:38:41;;;;;;;;;;;19.20;92.00;;;;;;5049225;28;19986;-76
2023/09/01 10:41:08;;;;;;;;;;;19.30;92.00;;;;;;5049401;28;19995;-76
2023/09/01 10:43:54;;;;;;;;;;;19.30;92.00;;;;;;5046470;28;19979;-77
2023/09/01 10:46:24;;;;;;;;;;;19.30;91.90;;;;;;5047754;28;20828;-77
2023/09/01 10:48:51;;;;;;;;;;;19.30;91.90;;;;;;5049330;28;20834;-76
2023/09/01 10:51:18;;;;;;;;;;;19.40;91.90;;;;;;5048202;28;20002;-77
2023/09/01 10:53:46;;;;;;;;;;;19.40;91.90;;;;;;5049267;28;19979;-77
2023/09/01 10:56:15;;;;;;;;;;;19.40;92.20;;;;;;5047882;28;19976;-77
2023/09/01 10:58:46;;;;;;;;;;;19.40;92.10;;;;;;5049629;28;19975;-77
2023/09/01 11:01:39;;;;;;;;;;;19.50;92.00;;;;;;5057081;28;20569;-77
2023/09/01 11:04:25;;;;;;;;;;;19.50;91.90;;;;;;5023986;28;20048;-77
2023/09/01 11:07:02;;;;;;;;;;;19.50;91.80;;;;;;5055188;28;19986;-77
2023/09/01 11:09:44;;;;;;;;;;;19.50;91.90;;;;;;5057038;28;20362;-78
2023/09/01 11:12:12;;;;;;;;;;;19.60;91.90;;;;;;5059281;28;19986;-77
2023/09/01 11:14:40;;;;;;;;;;;19.60;91.80;;;;;;5059361;28;19975;-77
2023/09/01 11:17:06;;;;;;;;;;;19.60;91.80;;;;;;5061495;28;19995;-77
2023/09/01 11:19:33;;;;;;;;;;;19.60;91.70;;;;;;5065140;28;19986;-77
2023/09/01 11:22:00;;;;;;;;;;;19.70;91.70;;;;;;5062645;28;19987;-78
2023/09/01 11:24:27;;;;;;;;;;;19.70;91.60;;;;;;5055463;28;19990;-78
2023/09/01 11:26:53;;;;;;;;;;;19.80;91.70;;;;;;5058556;28;19986;-77
2023/09/01 11:29:21;;;;;;;;;;;19.80;91.50;;;;;;5058809;28;20811;-77
2023/09/01 11:31:48;;;;;;;;;;;19.90;91.30;;;;;;5062784;28;19999;-77
2023/09/01 11:34:15;;;;;;;;;;;19.90;91.20;;;;;;5063938;28;20014;-77
2023/09/01 11:36:45;;;;;;;;;;;20.10;91.20;;;;;;5056806;28;20066;-77
2023/09/01 11:39:11;;;;;;;;;;;20.10;91.10;;;;;;5059377;28;19979;-77
2023/09/01 11:41:38;;;;;;;;;;;20.10;90.90;;;;;;5059848;28;20469;-77
2023/09/01 11:44:05;;;;;;;;;;;20.20;90.80;;;;;;5056325;28;19983;-77
2023/09/01 11:46:34;;;;;;;;;;;20.30;90.70;;;;;;5060703;28;20326;-77
2023/09/01 11:49:01;;;;;;;;;;;20.30;90.50;;;;;;5057597;28;19995;-77
2023/09/01 11:51:30;;;;;;;;;;;20.30;90.40;;;;;;5063954;28;20478;-77
2023/09/01 11:53:56;;;;;;;;;;;20.40;90.40;;;;;;5058766;28;20674;-77
2023/09/01 11:56:23;;;;;;;;;;;20.50;90.20;;;;;;5060735;28;19979;-77
2023/09/01 11:58:50;;;;;;;;;;;20.50;90.20;;;;;;5058947;28;19979;-77
2023/09/01 12:01:18;;;;;;;;;;;20.50;90.20;;;;;;5060226;28;20009;-77
2023/09/01 12:03:46;;;;;;;;;;;20.60;90.10;;;;;;5059655;28;19976;-77
2023/09/01 12:06:16;;;;;;;;;;;20.60;90.10;;;;;;5056931;28;19983;-76
2023/09/01 12:08:43;;;;;;;;;;;20.60;90.00;;;;;;5055575;28;19995;-77
2023/09/01 12:11:09;;;;;;;;;;;20.60;89.90;;;;;;5056989;28;20014;-77
2023/09/01 12:13:36;;;;;;;;;;;20.60;89.80;;;;;;5062790;28;19997;-77
2023/09/01 12:16:03;;;;;;;;;;;20.70;89.80;;;;;;5060327;28;20046;-77
2023/09/01 12:18:34;;;;;;;;;;;20.70;89.60;;;;;;5061115;28;19979;-77
2023/09/01 12:21:02;;;;;;;;;;;20.70;89.20;;;;;;5059637;28;20048;-77
2023/09/01 12:23:29;;;;;;;;;;;20.80;89.20;;;;;;5059683;28;19975;-77
2023/09/01 12:25:56;;;;;;;;;;;20.80;89.00;;;;;;5060423;28;19982;-76
2023/09/01 12:28:22;;;;;;;;;;;20.80;88.90;;;;;;5060285;28;20006;-77
2023/09/01 12:30:50;;;;;;;;;;;20.90;89.60;;;;;;5058052;28;19995;-76
2023/09/01 12:33:16;;;;;;;;;;;20.90;88.60;;;;;;5053558;28;20374;-75
2023/09/01 12:35:43;;;;;;;;;;;20.90;88.20;;;;;;5056528;28;20370;-77
2023/09/01 12:38:11;;;;;;;;;;;21.00;88.20;;;;;;5060382;28;19980;-76
2023/09/01 12:40:37;;;;;;;;;;;21.00;88.10;;;;;;5058764;28;19991;-77
2023/09/01 12:43:04;;;;;;;;;;;21.00;87.80;;;;;;5059041;28;19980;-76
2023/09/01 12:45:31;;;;;;;;;;;21.00;87.60;;;;;;5058538;28;20381;-76
2023/09/01 12:47:59;;;;;;;;;;;21.00;87.50;;;;;;5058035;28;19980;-77
2023/09/01 12:50:26;;;;;;;;;;;21.10;87.60;;;;;;5061798;28;20110;-77
2023/09/01 12:52:52;;;;;;;;;;;21.00;87.60;;;;;;5056827;28;19976;-76
2023/09/01 12:55:20;;;;;;;;;;;21.10;87.70;;;;;;5063053;28;20469;-76
2023/09/01 12:57:47;;;;;;;;;;;21.10;87.50;;;;;;5059493;28;19980;-77
2023/09/01 13:00:14;;;;;;;;;;;21.10;87.20;;;;;;5058774;28;19995;-76
2023/09/01 13:02:41;;;;;;;;;;;21.10;87.20;;;;;;5061341;28;19980;-77
2023/09/01 13:05:07;;;;;;;;;;;21.20;87.40;;;;;;5062745;28;19979;-77
2023/09/01 13:07:34;;;;;;;;;;;21.20;87.20;;;;;;5063114;28;19975;-77
2023/09/01 13:10:01;;;;;;;;;;;21.20;87.00;;;;;;5051624;28;19992;-76
2023/09/01 13:12:29;;;;;;;;;;;21.30;86.90;;;;;;5057485;28;20046;-77
2023/09/01 13:14:57;;;;;;;;;;;21.30;86.90;;;;;;5057478;28;20358;-76
2023/09/01 13:17:25;;;;;;;;;;;21.30;86.90;;;;;;5061424;28;20116;-76
2023/09/01 13:19:52;;;;;;;;;;;21.30;86.80;;;;;;5063206;28;20065;-76
2023/09/01 13:22:19;;;;;;;;;;;21.30;86.60;;;;;;5058815;28;19994;-76
2023/09/01 13:24:45;;;;;;;;;;;21.40;86.70;;;;;;5060160;28;20011;-75
2023/09/01 13:27:12;;;;;;;;;;;21.40;86.70;;;;;;5064153;28;19987;-76
2023/09/01 13:29:40;;;;;;;;;;;21.40;86.40;;;;;;5062689;28;20002;-75
2023/09/01 13:32:06;;;;;;;;;;;21.40;86.30;;;;;;5058087;28;19999;-76
2023/09/01 13:34:33;;;;;;;;;;;21.40;86.20;;;;;;5059989;28;19987;-76
2023/09/01 13:36:59;;;;;;;;;;;21.50;86.30;;;;;;5065004;28;20350;-75
2023/09/01 13:39:26;;;;;;;;;;;21.50;86.10;;;;;;5064983;28;20355;-75
2023/09/01 13:41:52;;;;;;;;;;;21.50;86.10;;;;;;5060500;28;19991;-75
2023/09/01 13:44:19;;;;;;;;;;;21.60;85.80;;;;;;5056769;28;19979;-77
2023/09/01 13:46:47;;;;;;;;;;;21.70;85.70;;;;;;5054175;28;20031;-76
2023/09/01 13:49:14;;;;;;;;;;;21.70;85.40;;;;;;5064154;28;19998;-78
2023/09/01 13:51:41;;;;;;;;;;;21.90;85.20;;;;;;5064576;28;19991;-77
2023/09/01 13:54:08;;;;;;;;;;;21.90;84.90;;;;;;5065612;28;19988;-79
2023/09/01 13:56:34;;;;;;;;;;;21.90;84.80;;;;;;5063837;28;20698;-78
2023/09/01 13:59:01;;;;;;;;;;;22.00;84.80;;;;;;5062978;28;20584;-76
2023/09/01 14:01:28;;;;;;;;;;;22.00;84.50;;;;;;5058043;28;20003;-77
2023/09/01 14:03:56;;;;;;;;;;;22.00;84.20;;;;;;5061466;28;20415;-77
2023/09/01 14:06:22;;;;;;;;;;;22.10;84.10;;;;;;5057878;28;19979;-76
2023/09/01 14:08:49;;;;;;;;;;;22.10;83.50;;;;;;5060689;28;20003;-77
2023/09/01 14:11:15;;;;;;;;;;;22.10;83.80;;;;;;5064559;28;19996;-78
2023/09/01 14:13:42;;;;;;;;;;;22.10;83.90;;;;;;5058591;28;19983;-75
2023/09/01 14:16:08;;;;;;;;;;;22.10;83.80;;;;;;5058467;28;19995;-76
2023/09/01 14:18:35;;;;;;;;;;;22.10;83.70;;;;;;5060923;28;19986;-76
2023/09/01 14:21:03;;;;;;;;;;;22.10;83.80;;;;;;5061993;28;20002;-77
2023/09/01 14:23:29;;;;;;;;;;;22.10;83.70;;;;;;5062097;28;19980;-79
2023/09/01 14:25:56;;;;;;;;;;;22.10;83.90;;;;;;5063870;28;19982;-76
2023/09/01 14:28:22;;;;;;;;;;;22.10;84.00;;;;;;5060628;28;19979;-76
2023/09/01 14:30:49;;;;;;;;;;;22.10;84.00;;;;;;5063413;28;19999;-77